createdAt,value
2023-04-18T00:02:44.351Z,8.50
2023-04-18T00:07:48.354Z,5.70
2023-04-18T00:12:51.888Z,7.50
2023-04-18T00:17:57.069Z,6.70
2023-04-18T00:23:01.048Z,6.70
2023-04-18T00:28:04.361Z,6.00
2023-04-18T00:33:07.569Z,6.90
2023-04-18T00:38:10.993Z,7.00
2023-04-18T00:43:15.214Z,7.50
2023-04-18T00:48:19.012Z,6.60
2023-04-18T00:53:22.761Z,7.30
2023-04-18T00:58:26.845Z,7.30
2023-04-18T01:03:30.371Z,6.90
2023-04-18T01:08:34.431Z,8.00
2023-04-18T01:13:37.747Z,6.50
2023-04-18T01:18:41.260Z,6.90
2023-04-18T01:23:44.876Z,7.00
2023-04-18T01:28:48.297Z,8.60
2023-04-18T01:33:51.496Z,6.20
2023-04-18T01:38:54.814Z,8.70
2023-04-18T01:43:58.329Z,9.00
2023-04-18T01:49:01.630Z,8.60
2023-04-18T01:54:05.562Z,8.20
2023-04-18T01:59:08.765Z,8.00
2023-04-18T02:04:12.396Z,7.30
2023-04-18T02:09:15.798Z,8.10
2023-04-18T02:14:19.014Z,7.60
2023-04-18T02:19:22.829Z,7.00
2023-04-18T02:24:26.144Z,7.60
2023-04-18T02:29:30.891Z,6.10
2023-04-18T02:34:34.300Z,6.70
2023-04-18T02:39:37.509Z,6.90
2023-04-18T02:44:41.126Z,6.80
2023-04-18T02:49:44.332Z,6.70
2023-04-18T02:54:47.640Z,7.40
2023-04-18T02:59:50.849Z,7.30
2023-04-18T03:04:54.180Z,7.00
2023-04-18T03:09:57.373Z,7.00
2023-04-18T03:15:00.675Z,6.80
2023-04-18T03:20:04.195Z,6.90
2023-04-18T03:25:08.443Z,6.50
2023-04-18T03:30:12.045Z,6.60
2023-04-18T03:35:16.074Z,7.30
2023-04-18T03:40:19.597Z,6.90
2023-04-18T03:45:22.902Z,7.10
2023-04-18T03:50:26.315Z,7.00
2023-04-18T03:55:29.626Z,5.00
2023-04-18T04:00:32.836Z,7.10
2023-04-18T04:05:36.162Z,7.30
2023-04-18T04:10:39.562Z,6.90
2023-04-18T04:15:42.871Z,7.40
2023-04-18T04:20:46.828Z,7.00
2023-04-18T04:25:50.040Z,7.30
2023-04-18T04:30:54.132Z,8.00
2023-04-18T04:35:57.440Z,7.90
2023-04-18T04:41:00.650Z,7.70
2023-04-18T04:46:04.866Z,11.60
2023-04-18T04:51:08.194Z,9.60
2023-04-18T04:56:11.604Z,9.10
2023-04-18T05:01:14.861Z,7.30
2023-04-18T05:06:21.084Z,7.00
2023-04-18T05:11:24.403Z,8.10
2023-04-18T05:16:27.776Z,8.00
2023-04-18T05:21:31.648Z,8.10
2023-04-18T05:26:35.358Z,8.10
2023-04-18T05:31:38.568Z,9.20
2023-04-18T05:36:41.982Z,8.40
2023-04-18T05:41:45.190Z,8.70
2023-04-18T05:46:51.580Z,8.50
2023-04-18T05:51:54.887Z,8.90
2023-04-18T05:56:58.710Z,8.80
2023-04-18T06:02:02.414Z,8.60
2023-04-18T06:07:06.049Z,9.90
2023-04-18T06:12:09.583Z,8.00
2023-04-18T06:17:13.754Z,8.80
2023-04-18T06:22:17.106Z,8.70
2023-04-18T06:27:30.635Z,9.30
2023-04-18T06:32:35.483Z,10.20
2023-04-18T06:37:39.024Z,9.10
2023-04-18T06:42:43.704Z,7.20
2023-04-18T06:47:47.959Z,8.90
2023-04-18T06:57:54.211Z,6.60
2023-04-18T07:02:57.542Z,7.00
2023-04-18T07:08:01.648Z,5.60
2023-04-18T07:13:05.159Z,5.50
2023-04-18T07:18:08.654Z,6.10
2023-04-18T07:23:12.193Z,5.50
2023-04-18T07:28:15.524Z,7.60
2023-04-18T07:33:18.815Z,7.40
2023-04-18T07:38:22.127Z,8.30
2023-04-18T07:43:25.437Z,6.10
2023-04-18T07:48:28.644Z,4.90
2023-04-18T07:53:32.060Z,4.80
2023-04-18T07:58:36.393Z,6.40
2023-04-18T08:03:39.841Z,5.80
2023-04-18T08:08:43.698Z,5.50
2023-04-18T08:13:46.945Z,4.60
2023-04-18T08:18:50.252Z,6.10
2023-04-18T08:23:53.564Z,4.60
2023-04-18T08:28:56.824Z,4.60
2023-04-18T08:34:00.099Z,3.70
2023-04-18T08:39:03.697Z,4.40
2023-04-18T08:44:07.739Z,4.60
2023-04-18T08:54:15.982Z,3.80
2023-04-18T08:59:20.830Z,5.60
2023-04-18T09:04:45.752Z,3.20
2023-04-18T09:09:51.660Z,3.40
2023-04-18T09:14:58.063Z,3.30
2023-04-18T09:20:06.644Z,3.50
2023-04-18T09:25:09.950Z,3.60
2023-04-18T09:30:33.282Z,3.20
2023-04-18T09:35:38.269Z,3.30
2023-04-18T09:40:41.492Z,3.60
2023-04-18T09:45:46.869Z,3.20
2023-04-18T09:50:51.187Z,3.00
2023-04-18T09:55:57.118Z,3.50
2023-04-18T10:01:02.073Z,2.70
2023-04-18T10:06:06.726Z,4.10
2023-04-18T10:11:10.271Z,3.10
2023-04-18T10:16:14.997Z,2.80
2023-04-18T10:21:18.333Z,2.50
2023-04-18T10:26:21.834Z,3.40
2023-04-18T10:31:29.535Z,3.30
2023-04-18T10:36:33.677Z,3.00
2023-04-18T10:41:49.475Z,2.90
2023-04-18T10:46:53.860Z,3.50
2023-04-18T10:51:59.620Z,2.90
2023-04-18T10:57:04.549Z,3.00
2023-04-18T11:02:10.732Z,2.20
2023-04-18T11:07:14.123Z,2.90
2023-04-18T11:17:26.434Z,2.60
2023-04-18T11:22:30.100Z,1.70
2023-04-18T11:27:33.316Z,2.50
2023-04-18T11:32:36.658Z,2.20
2023-04-18T11:37:41.625Z,2.70
2023-04-18T11:42:45.042Z,2.90
2023-04-18T11:47:48.468Z,2.30
2023-04-18T11:52:53.176Z,3.50
2023-04-18T11:57:59.132Z,2.70
2023-04-18T12:03:04.915Z,3.90
2023-04-18T12:08:13.454Z,3.00
2023-04-18T12:13:17.989Z,3.00
2023-04-18T12:18:21.800Z,4.90
2023-04-18T12:23:32.352Z,3.20
2023-04-18T12:28:35.969Z,3.20
2023-04-18T12:33:39.178Z,2.80
2023-04-18T12:38:42.385Z,2.60
2023-04-18T12:43:45.695Z,3.60
2023-04-18T12:48:49.009Z,4.90
2023-04-18T12:53:52.433Z,3.30
2023-04-18T12:58:55.831Z,3.20
2023-04-18T13:04:10.620Z,2.90
2023-04-18T13:09:17.056Z,3.00
2023-04-18T13:14:20.310Z,3.10
2023-04-18T13:19:23.726Z,3.30
2023-04-18T13:24:27.699Z,2.60
2023-04-18T13:29:30.956Z,3.20
2023-04-18T13:34:37.131Z,3.20
2023-04-18T13:39:40.697Z,3.00
2023-04-18T13:44:43.964Z,3.60
2023-04-18T13:49:47.272Z,4.20
2023-04-18T13:54:50.478Z,4.00
2023-04-18T13:59:53.893Z,4.50
2023-04-18T14:04:58.540Z,5.20
2023-04-18T14:10:02.194Z,4.60
2023-04-18T14:15:06.083Z,5.60
2023-04-18T14:20:09.802Z,4.60
2023-04-18T14:25:13.109Z,6.10
2023-04-18T14:30:16.728Z,4.20
2023-04-18T14:35:20.245Z,4.00
2023-04-18T14:40:24.343Z,5.40
2023-04-18T14:45:27.787Z,5.00
2023-04-18T14:50:31.305Z,4.20
2023-04-18T14:55:34.815Z,6.00
2023-04-18T15:00:38.229Z,3.70
2023-04-18T15:05:45.278Z,4.20
2023-04-18T15:10:48.536Z,3.40
2023-04-18T15:15:57.411Z,3.70
2023-04-18T15:21:00.794Z,3.70
2023-04-18T15:26:04.004Z,4.30
2023-04-18T15:31:07.927Z,4.90
2023-04-18T15:36:11.136Z,3.90
2023-04-18T15:41:14.794Z,6.30
2023-04-18T15:46:18.080Z,8.40
2023-04-18T15:51:22.329Z,5.30
2023-04-18T15:56:27.092Z,5.20
2023-04-18T16:01:30.710Z,3.80
2023-04-18T16:06:34.170Z,4.20
2023-04-18T16:11:37.376Z,3.80
2023-04-18T16:16:40.593Z,7.90
2023-04-18T16:21:47.278Z,7.50
2023-04-18T16:26:50.995Z,7.60
2023-04-18T16:31:54.322Z,6.70
2023-04-18T16:36:58.038Z,6.50
2023-04-18T16:42:01.654Z,4.60
2023-04-18T16:47:06.241Z,6.00
2023-04-18T16:52:09.917Z,5.90
2023-04-18T16:57:13.185Z,11.70
2023-04-18T17:02:16.716Z,12.50
2023-04-18T17:07:20.258Z,10.10
2023-04-18T17:12:23.669Z,10.30
2023-04-18T17:17:27.103Z,11.70
2023-04-18T17:22:30.581Z,7.40
2023-04-18T17:27:34.012Z,7.50
2023-04-18T17:32:42.214Z,6.40
2023-04-18T17:37:47.918Z,5.40
2023-04-18T17:42:51.412Z,5.70
2023-04-18T17:47:57.235Z,6.30
2023-04-18T17:53:00.557Z,4.90
2023-04-18T17:58:05.437Z,5.70
2023-04-18T18:03:13.784Z,6.70
2023-04-18T18:08:17.491Z,5.50
2023-04-18T18:13:20.708Z,6.00
2023-04-18T18:18:24.421Z,5.20
2023-04-18T18:23:27.730Z,5.70
2023-04-18T18:28:31.142Z,5.40
2023-04-18T18:33:34.350Z,4.50
2023-04-18T18:38:37.555Z,7.10
2023-04-18T18:43:40.968Z,5.60
2023-04-18T18:48:44.713Z,5.80
2023-04-18T18:53:48.033Z,4.90
2023-04-18T18:58:53.639Z,4.50
2023-04-18T19:03:57.016Z,4.70
2023-04-18T19:09:00.713Z,4.40
2023-04-18T19:14:04.428Z,4.40
2023-04-18T19:19:07.735Z,5.60
2023-04-18T19:24:12.198Z,6.10
2023-04-18T19:29:15.846Z,7.40
2023-04-18T19:34:19.309Z,4.20
2023-04-18T19:39:22.618Z,4.40
2023-04-18T19:44:26.230Z,5.60
2023-04-18T19:49:29.543Z,4.70
2023-04-18T19:54:36.125Z,4.30
2023-04-18T19:59:39.318Z,4.40
2023-04-18T20:04:44.430Z,4.80
2023-04-18T20:09:47.798Z,4.80
2023-04-18T20:14:51.932Z,5.10
2023-04-18T20:19:57.498Z,4.40
2023-04-18T20:25:01.826Z,4.40
2023-04-18T20:35:09.881Z,3.70
2023-04-18T20:40:13.303Z,3.60
2023-04-18T20:45:16.713Z,4.00
2023-04-18T20:50:20.841Z,3.80
2023-04-18T20:55:24.159Z,4.40
2023-04-18T21:00:27.569Z,3.30
2023-04-18T21:05:32.446Z,3.60
2023-04-18T21:10:35.723Z,3.80
2023-04-18T21:15:39.457Z,3.90
2023-04-18T21:20:42.753Z,3.50
2023-04-18T21:25:46.207Z,3.20
2023-04-18T21:30:49.574Z,2.80
2023-04-18T21:35:52.787Z,3.40
2023-04-18T21:40:56.109Z,3.30
2023-04-18T21:45:59.462Z,3.10
2023-04-18T21:51:02.831Z,4.50
2023-04-18T21:56:07.369Z,2.90
2023-04-18T22:01:10.673Z,3.10
2023-04-18T22:06:14.087Z,2.20
2023-04-18T22:11:19.038Z,3.40
2023-04-18T22:16:22.400Z,7.70
2023-04-18T22:21:26.174Z,2.20
2023-04-18T22:26:29.379Z,3.90
2023-04-18T22:31:32.587Z,3.30
2023-04-18T22:36:36.204Z,3.20
2023-04-18T22:41:39.417Z,3.80
2023-04-18T22:46:43.280Z,4.70
2023-04-18T22:51:46.748Z,2.60
2023-04-18T22:56:50.571Z,2.40
2023-04-18T23:01:54.004Z,3.50
2023-04-18T23:06:57.501Z,2.50
2023-04-18T23:12:00.710Z,3.30
2023-04-18T23:17:04.129Z,2.70
2023-04-18T23:22:07.333Z,4.70
2023-04-18T23:27:10.648Z,3.40
2023-04-18T23:32:13.851Z,3.30
2023-04-18T23:37:17.069Z,3.20
2023-04-18T23:42:20.273Z,5.70
2023-04-18T23:47:23.609Z,3.20
2023-04-18T23:52:26.788Z,3.60
2023-04-18T23:57:30.204Z,3.60
